Crocker, Iowa
Current Conditions -  °F | °C
As of 11:15 AM on Saturday 20 Dec 2014 (Local Time) from KIKV Reporting Station
Haze Haze  
Wind Chill: 30°   Ceiling: 800
Heat Index: 34°   Visibility: 6mi
Dew Point: 32°   Wind: 5mph
Humidity: 93%   Direction: 140°SE
Pressure: 30.17"   Gusts: NA
Location:  41.8061°N, 93.7113°W
Report Text: KIKV 201715Z AUTO 14004KT 6SM BR OVC008 01/M00 A3017 RMK AO2
Loading
Personal Weather Stations






























Interactive Weather Map New forecast layout! Learn more

10-Day Weather Forecast

Advertisements
Track Severe Weather on mobile